createdAt,value
2018-12-02T00:00:29.404Z,93.20
2018-12-02T00:01:32.981Z,93.10
2018-12-02T00:02:36.610Z,93.10
2018-12-02T00:03:40.194Z,93.10
2018-12-02T00:04:43.762Z,93.30
2018-12-02T00:05:47.411Z,93.00
2018-12-02T00:06:51.001Z,92.80
2018-12-02T00:07:55.574Z,93.00
2018-12-02T00:08:59.140Z,93.30
2018-12-02T00:10:03.393Z,92.80
2018-12-02T00:11:06.964Z,92.90
2018-12-02T00:12:10.537Z,93.10
2018-12-02T00:13:14.149Z,93.20
2018-12-02T00:14:17.770Z,93.10
2018-12-02T00:15:24.420Z,93.00
2018-12-02T00:16:27.990Z,92.80
2018-12-02T00:17:31.581Z,93.00
2018-12-02T00:18:36.202Z,93.10
2018-12-02T00:19:38.795Z,93.20
2018-12-02T00:20:42.505Z,93.30
2018-12-02T00:21:46.077Z,93.30
2018-12-02T00:22:50.614Z,93.30
2018-12-02T00:23:53.401Z,93.20
2018-12-02T00:24:56.982Z,93.20
2018-12-02T00:26:00.567Z,93.00
2018-12-02T00:27:04.238Z,93.10
2018-12-02T00:28:09.046Z,93.10
2018-12-02T00:29:12.629Z,93.10
2018-12-02T00:30:17.256Z,93.40
2018-12-02T00:31:20.822Z,94.00
2018-12-02T00:32:24.385Z,94.50
2018-12-02T00:33:27.969Z,95.00
2018-12-02T00:34:31.541Z,95.10
2018-12-02T00:35:35.154Z,95.10
2018-12-02T00:36:38.729Z,95.10
2018-12-02T00:37:43.139Z,95.20
2018-12-02T00:38:46.689Z,95.30
2018-12-02T00:39:50.252Z,95.40
2018-12-02T00:40:53.879Z,95.40
2018-12-02T00:41:57.433Z,95.40
2018-12-02T00:43:01.190Z,95.40
2018-12-02T00:44:05.056Z,95.20
2018-12-02T00:45:10.890Z,95.40
2018-12-02T00:46:14.472Z,95.30
2018-12-02T00:47:18.057Z,95.20
2018-12-02T00:48:21.625Z,95.10
2018-12-02T00:49:25.199Z,95.20
2018-12-02T00:50:28.845Z,95.20
2018-12-02T00:51:32.444Z,95.30
2018-12-02T00:52:36.156Z,95.20
2018-12-02T00:53:39.738Z,95.30
2018-12-02T00:54:43.429Z,95.20
2018-12-02T00:55:46.997Z,95.10
2018-12-02T00:56:50.573Z,95.10
2018-12-02T00:57:54.157Z,95.00
2018-12-02T00:58:57.736Z,94.90
2018-12-02T01:00:01.306Z,94.90
2018-12-02T01:01:05.025Z,94.90
2018-12-02T01:02:10.705Z,94.80
2018-12-02T01:03:14.265Z,94.80
2018-12-02T01:04:17.874Z,94.60
2018-12-02T01:05:22.065Z,94.60
2018-12-02T01:06:25.681Z,94.50
2018-12-02T01:07:29.226Z,94.50
2018-12-02T01:08:32.800Z,94.60
2018-12-02T01:09:36.373Z,94.50
2018-12-02T01:10:39.945Z,94.40
2018-12-02T01:11:43.528Z,94.40
2018-12-02T01:12:47.921Z,94.30
2018-12-02T01:13:51.498Z,94.40
2018-12-02T01:14:55.119Z,94.30
2018-12-02T01:15:58.665Z,94.10
2018-12-02T01:17:02.245Z,94.30
2018-12-02T01:18:06.264Z,94.00
2018-12-02T01:19:09.857Z,93.90
2018-12-02T01:20:14.589Z,93.90
2018-12-02T01:21:18.157Z,93.90
2018-12-02T01:22:21.787Z,93.90
2018-12-02T01:23:25.377Z,93.90
2018-12-02T01:24:28.958Z,94.00
2018-12-02T01:25:32.537Z,94.10
2018-12-02T01:26:36.144Z,94.00
2018-12-02T01:27:39.727Z,94.10
2018-12-02T01:28:43.309Z,94.10
2018-12-02T01:29:46.934Z,94.20
2018-12-02T01:30:50.613Z,93.80
2018-12-02T01:31:54.169Z,93.60
2018-12-02T01:32:57.770Z,93.50
2018-12-02T01:34:01.348Z,93.60
2018-12-02T01:35:05.117Z,93.60
2018-12-02T01:36:08.710Z,93.50
2018-12-02T01:37:12.305Z,93.50
2018-12-02T01:38:15.891Z,93.40
2018-12-02T01:39:19.476Z,93.40
2018-12-02T01:40:23.908Z,93.80
2018-12-02T01:41:27.484Z,93.50
2018-12-02T01:42:31.069Z,93.50
2018-12-02T01:43:34.649Z,93.40
2018-12-02T01:44:38.311Z,93.40
2018-12-02T01:45:41.890Z,93.40
2018-12-02T01:46:45.469Z,93.40
2018-12-02T01:47:49.070Z,93.50
2018-12-02T01:48:52.649Z,93.50
2018-12-02T01:49:56.250Z,93.40
2018-12-02T01:50:59.845Z,93.30
2018-12-02T01:52:03.441Z,93.30
2018-12-02T01:53:07.061Z,93.30
2018-12-02T01:54:10.646Z,93.30
2018-12-02T01:55:14.234Z,93.30
2018-12-02T01:56:17.813Z,93.40
2018-12-02T01:57:21.396Z,93.30
2018-12-02T01:58:24.977Z,93.30
2018-12-02T01:59:28.564Z,93.30
2018-12-02T02:00:32.145Z,93.20
2018-12-02T02:01:35.756Z,93.20
2018-12-02T02:02:39.306Z,93.30
2018-12-02T02:03:42.883Z,93.70
2018-12-02T02:04:46.463Z,93.40
2018-12-02T02:05:50.049Z,93.40
2018-12-02T02:06:53.639Z,93.30
2018-12-02T02:07:57.238Z,93.20
2018-12-02T02:09:00.890Z,93.10
2018-12-02T02:10:08.561Z,93.20
2018-12-02T02:11:12.269Z,93.30
2018-12-02T02:12:15.821Z,93.30
2018-12-02T02:13:19.405Z,93.70
2018-12-02T02:14:22.990Z,93.50
2018-12-02T02:15:26.581Z,93.50
2018-12-02T02:16:30.178Z,93.60
2018-12-02T02:17:33.770Z,93.70
2018-12-02T02:18:37.353Z,93.70
2018-12-02T02:19:40.990Z,93.80
2018-12-02T02:20:44.582Z,94.00
2018-12-02T02:21:48.153Z,94.10
2018-12-02T02:22:51.853Z,94.20
2018-12-02T02:23:55.455Z,94.20
2018-12-02T02:24:59.038Z,94.20
2018-12-02T02:26:02.657Z,94.30
2018-12-02T02:27:06.431Z,94.30
2018-12-02T02:28:09.992Z,94.40
2018-12-02T02:29:13.569Z,94.50
2018-12-02T02:30:18.323Z,94.40
2018-12-02T02:31:21.921Z,94.50
2018-12-02T02:32:25.501Z,94.60
2018-12-02T02:33:29.096Z,94.60
2018-12-02T02:34:32.676Z,94.50
2018-12-02T02:35:36.280Z,94.60
2018-12-02T02:36:39.869Z,94.60
2018-12-02T02:37:43.452Z,94.60
2018-12-02T02:38:47.029Z,94.70
2018-12-02T02:39:50.609Z,94.80
2018-12-02T02:40:54.190Z,94.80
2018-12-02T02:41:57.785Z,94.80
2018-12-02T02:43:01.370Z,95.20
2018-12-02T02:44:05.142Z,94.80
2018-12-02T02:45:09.610Z,94.70
2018-12-02T02:46:13.177Z,94.60
2018-12-02T02:47:16.765Z,94.60
2018-12-02T02:48:20.357Z,94.60
2018-12-02T02:49:23.978Z,95.00
2018-12-02T02:50:27.536Z,94.70
2018-12-02T02:51:31.128Z,94.90
2018-12-02T02:52:34.714Z,95.00
2018-12-02T02:53:38.304Z,95.00
2018-12-02T02:54:41.881Z,94.60
2018-12-02T02:55:45.465Z,94.60
2018-12-02T02:56:49.073Z,94.60
2018-12-02T02:57:52.674Z,94.70
2018-12-02T02:58:56.258Z,94.40
2018-12-02T02:59:59.860Z,94.40
2018-12-02T03:01:03.458Z,94.40
2018-12-02T03:02:07.046Z,94.30
2018-12-02T03:03:10.635Z,94.30
2018-12-02T03:04:14.216Z,94.20
2018-12-02T03:05:18.025Z,94.20
2018-12-02T03:06:21.622Z,94.20
2018-12-02T03:07:25.322Z,94.20
2018-12-02T03:08:28.867Z,94.10
2018-12-02T03:09:32.449Z,94.40
2018-12-02T03:10:36.033Z,94.10
2018-12-02T03:11:39.624Z,94.00
2018-12-02T03:12:45.215Z,93.90
2018-12-02T03:13:48.786Z,93.80
2018-12-02T03:14:52.377Z,93.80
2018-12-02T03:15:55.990Z,93.70
2018-12-02T03:16:59.559Z,93.60
2018-12-02T03:18:03.153Z,93.60
2018-12-02T03:19:06.726Z,93.50
2018-12-02T03:20:11.392Z,93.50
2018-12-02T03:21:14.958Z,93.40
2018-12-02T03:22:18.667Z,93.30
2018-12-02T03:23:22.248Z,93.40
2018-12-02T03:24:25.802Z,93.30
2018-12-02T03:25:29.381Z,93.30
2018-12-02T03:26:32.966Z,93.10
2018-12-02T03:27:36.541Z,93.00
2018-12-02T03:28:40.121Z,93.10
2018-12-02T03:29:43.701Z,93.10
2018-12-02T03:30:47.382Z,93.10
2018-12-02T03:31:50.971Z,93.10
2018-12-02T03:32:54.550Z,93.10
2018-12-02T03:33:58.119Z,93.30
2018-12-02T03:35:01.693Z,92.90
2018-12-02T03:36:05.573Z,93.30
2018-12-02T03:37:09.157Z,92.80
2018-12-02T03:38:12.742Z,92.70
2018-12-02T03:39:16.316Z,92.50
2018-12-02T03:40:22.852Z,92.40
2018-12-02T03:41:26.434Z,92.40
2018-12-02T03:42:30.021Z,92.40
2018-12-02T03:43:33.594Z,92.30
2018-12-02T03:44:37.170Z,92.40
2018-12-02T03:45:40.743Z,92.30
2018-12-02T03:46:44.326Z,92.30
2018-12-02T03:47:47.903Z,92.30
2018-12-02T03:48:51.592Z,92.50
2018-12-02T03:49:55.161Z,92.10
2018-12-02T03:50:58.729Z,92.10
2018-12-02T03:52:02.325Z,91.90
2018-12-02T03:53:05.956Z,91.70
2018-12-02T03:54:09.497Z,91.70
2018-12-02T03:55:13.072Z,91.70
2018-12-02T03:56:17.525Z,91.70
2018-12-02T03:57:21.117Z,91.60
2018-12-02T03:58:24.701Z,91.50
2018-12-02T03:59:28.278Z,91.40
2018-12-02T04:00:31.905Z,91.40
2018-12-02T04:01:35.457Z,91.60
2018-12-02T04:02:39.068Z,91.20
2018-12-02T04:03:42.637Z,91.20
2018-12-02T04:04:46.205Z,91.20
2018-12-02T04:05:49.782Z,91.20
2018-12-02T04:06:53.366Z,91.10
2018-12-02T04:07:56.937Z,91.00
2018-12-02T04:09:00.524Z,91.00
2018-12-02T04:10:05.946Z,90.90
2018-12-02T04:11:09.543Z,90.80
2018-12-02T04:12:13.125Z,90.70
2018-12-02T04:13:16.705Z,90.70
2018-12-02T04:14:20.277Z,90.70
2018-12-02T04:15:24.576Z,90.70
2018-12-02T04:16:28.145Z,90.60
2018-12-02T04:17:31.729Z,90.50
2018-12-02T04:18:35.306Z,90.50
2018-12-02T04:19:38.882Z,90.40
2018-12-02T04:20:42.477Z,90.30
2018-12-02T04:21:46.069Z,90.30
2018-12-02T04:22:50.477Z,90.30
2018-12-02T04:23:54.055Z,90.30
2018-12-02T04:24:57.638Z,90.20
2018-12-02T04:26:01.230Z,90.10
2018-12-02T04:27:05.149Z,90.10
2018-12-02T04:28:08.722Z,90.20
2018-12-02T04:29:12.301Z,90.10
2018-12-02T04:30:16.731Z,90.10
2018-12-02T04:31:20.328Z,90.10
2018-12-02T04:32:23.893Z,90.00
2018-12-02T04:33:27.478Z,90.00
2018-12-02T04:34:31.046Z,90.00
2018-12-02T04:35:34.642Z,89.90
2018-12-02T04:36:38.256Z,89.70
2018-12-02T04:37:41.793Z,89.80
2018-12-02T04:38:45.463Z,89.80
2018-12-02T04:39:49.005Z,89.60
2018-12-02T04:40:52.565Z,89.60
2018-12-02T04:41:56.150Z,89.60
2018-12-02T04:42:59.733Z,89.60
2018-12-02T04:44:03.318Z,89.40
2018-12-02T04:45:15.174Z,89.30
2018-12-02T04:46:18.746Z,89.00
2018-12-02T04:47:22.322Z,88.90
2018-12-02T04:48:25.909Z,89.00
2018-12-02T04:49:29.489Z,88.90
2018-12-02T04:50:33.146Z,88.90
2018-12-02T04:51:36.735Z,88.80
2018-12-02T04:52:40.274Z,89.00
2018-12-02T04:53:43.861Z,88.90
2018-12-02T04:54:47.441Z,88.70
2018-12-02T04:55:51.135Z,88.90
2018-12-02T04:56:54.713Z,88.60
2018-12-02T04:57:58.303Z,88.50
2018-12-02T04:59:01.883Z,88.60
2018-12-02T05:00:10.261Z,88.50
2018-12-02T05:01:13.842Z,88.40
2018-12-02T05:02:17.421Z,88.30
2018-12-02T05:03:21.022Z,88.40
2018-12-02T05:04:24.603Z,88.30
2018-12-02T05:05:28.221Z,88.20
2018-12-02T05:06:31.774Z,88.30
2018-12-02T05:07:35.348Z,88.40
2018-12-02T05:08:38.997Z,88.50
2018-12-02T05:09:42.545Z,88.50
2018-12-02T05:10:46.126Z,88.50
2018-12-02T05:11:49.698Z,88.40
2018-12-02T05:12:53.289Z,88.20
2018-12-02T05:13:56.947Z,88.20
2018-12-02T05:15:00.507Z,88.10
2018-12-02T05:16:04.062Z,87.90
2018-12-02T05:17:07.632Z,87.90
2018-12-02T05:18:11.307Z,88.00
2018-12-02T05:19:14.854Z,88.00
2018-12-02T05:20:21.317Z,88.00
2018-12-02T05:21:24.892Z,88.10
2018-12-02T05:22:28.482Z,88.10
2018-12-02T05:23:32.070Z,88.20
2018-12-02T05:24:35.661Z,87.90
2018-12-02T05:25:39.250Z,87.90
2018-12-02T05:26:42.896Z,87.90
2018-12-02T05:27:46.461Z,88.10
2018-12-02T05:28:50.042Z,89.00
2018-12-02T05:29:53.627Z,88.30
2018-12-02T05:30:57.198Z,88.30
2018-12-02T05:32:00.778Z,88.20
2018-12-02T05:33:04.361Z,88.30
2018-12-02T05:34:07.947Z,88.30
2018-12-02T05:35:12.544Z,88.40
2018-12-02T05:36:16.121Z,88.40
2018-12-02T05:37:19.701Z,88.50
2018-12-02T05:38:23.289Z,88.60
2018-12-02T05:39:27.005Z,88.80
2018-12-02T05:40:30.553Z,89.10
2018-12-02T05:41:39.622Z,89.80
2018-12-02T05:42:43.305Z,89.20
2018-12-02T05:43:46.853Z,89.30
2018-12-02T05:44:50.441Z,89.40
2018-12-02T05:45:54.017Z,89.50
2018-12-02T05:46:57.669Z,89.50
2018-12-02T05:48:01.217Z,89.70
2018-12-02T05:49:05.255Z,89.90
2018-12-02T05:50:13.365Z,89.90
2018-12-02T05:51:16.939Z,90.20
2018-12-02T05:52:20.532Z,90.10
2018-12-02T05:53:24.123Z,90.10
2018-12-02T05:54:27.697Z,90.20
2018-12-02T05:55:32.829Z,90.30
2018-12-02T05:56:36.421Z,90.40
2018-12-02T05:57:39.992Z,90.40
2018-12-02T05:58:43.582Z,90.50
2018-12-02T05:59:47.303Z,90.60
2018-12-02T06:00:50.896Z,90.60
2018-12-02T06:01:54.457Z,90.70
2018-12-02T06:02:58.020Z,90.70
2018-12-02T06:04:01.616Z,90.70
2018-12-02T06:05:06.405Z,90.80
2018-12-02T06:06:09.954Z,90.90
2018-12-02T06:07:13.529Z,90.90
2018-12-02T06:08:17.105Z,91.30
2018-12-02T06:09:20.694Z,91.20
2018-12-02T06:10:24.287Z,91.00
2018-12-02T06:11:27.861Z,91.00
2018-12-02T06:12:31.438Z,91.00
2018-12-02T06:13:35.023Z,91.00
2018-12-02T06:14:38.695Z,91.00
2018-12-02T06:15:42.285Z,91.10
2018-12-02T06:16:45.848Z,91.40
2018-12-02T06:17:49.416Z,91.20
2018-12-02T06:18:52.997Z,90.80
2018-12-02T06:19:56.602Z,90.80
2018-12-02T06:21:00.185Z,90.70
2018-12-02T06:22:03.781Z,90.70
2018-12-02T06:23:07.369Z,90.70
2018-12-02T06:24:10.965Z,90.60
2018-12-02T06:25:14.570Z,90.50
2018-12-02T06:26:18.142Z,90.50
2018-12-02T06:27:21.726Z,90.50
2018-12-02T06:28:25.319Z,90.40
2018-12-02T06:29:28.892Z,90.50
2018-12-02T06:30:32.482Z,90.40
2018-12-02T06:31:36.143Z,90.40
2018-12-02T06:32:39.697Z,90.40
2018-12-02T06:33:43.322Z,90.40
2018-12-02T06:34:47.014Z,90.30
2018-12-02T06:35:50.574Z,90.70
2018-12-02T06:36:54.141Z,90.30
2018-12-02T06:37:58.694Z,90.40
2018-12-02T06:39:02.294Z,90.30
2018-12-02T06:40:19.406Z,90.30
2018-12-02T06:41:22.994Z,90.40
2018-12-02T06:42:26.546Z,90.40
2018-12-02T06:43:30.125Z,90.70
2018-12-02T06:44:33.706Z,90.50
2018-12-02T06:45:37.293Z,90.60
2018-12-02T06:46:40.890Z,90.70
2018-12-02T06:47:44.478Z,90.80
2018-12-02T06:48:48.129Z,90.80
2018-12-02T06:49:51.682Z,90.80
2018-12-02T06:50:55.269Z,91.30
2018-12-02T06:51:58.850Z,91.10
2018-12-02T06:53:02.433Z,91.30
2018-12-02T06:54:06.046Z,91.40
2018-12-02T06:55:16.623Z,91.70
2018-12-02T06:56:22.779Z,92.30
2018-12-02T06:57:26.353Z,92.70
2018-12-02T06:58:40.095Z,93.10
2018-12-02T06:59:46.853Z,93.50
2018-12-02T07:01:00.596Z,93.80
2018-12-02T07:02:10.830Z,94.10
2018-12-02T07:03:33.006Z,94.20
2018-12-02T07:04:38.601Z,94.30
2018-12-02T07:05:42.213Z,94.80
2018-12-02T07:06:45.809Z,95.30
2018-12-02T07:07:49.408Z,95.70
2018-12-02T07:08:53.067Z,95.90
2018-12-02T07:09:56.618Z,96.00
2018-12-02T07:11:00.212Z,96.30
2018-12-02T07:12:03.793Z,96.20
2018-12-02T07:13:07.372Z,96.40
2018-12-02T07:14:10.952Z,96.50
2018-12-02T07:15:14.533Z,96.60
2018-12-02T07:16:18.131Z,96.60
2018-12-02T07:17:21.734Z,96.70
2018-12-02T07:18:26.489Z,96.80
2018-12-02T07:19:33.750Z,96.90
2018-12-02T07:20:37.676Z,96.90
2018-12-02T07:21:41.267Z,97.20
2018-12-02T07:22:44.869Z,97.00
2018-12-02T07:23:48.462Z,97.10
2018-12-02T07:24:52.145Z,97.20
2018-12-02T07:25:55.734Z,97.20
2018-12-02T07:26:59.309Z,97.30
2018-12-02T07:28:02.901Z,97.30
2018-12-02T07:29:06.489Z,97.40
2018-12-02T07:30:10.909Z,97.40
2018-12-02T07:31:14.496Z,97.50
2018-12-02T07:32:18.098Z,97.50
2018-12-02T07:33:21.737Z,97.50
2018-12-02T07:34:25.323Z,97.60
2018-12-02T07:35:28.905Z,97.60
2018-12-02T07:36:32.491Z,97.60
2018-12-02T07:37:36.090Z,97.60
2018-12-02T07:39:21.246Z,97.60
2018-12-02T07:40:33.714Z,97.70
2018-12-02T07:41:37.258Z,97.80
2018-12-02T07:42:40.845Z,97.90
2018-12-02T07:43:44.447Z,98.00
2018-12-02T07:44:48.042Z,98.00
2018-12-02T07:45:51.666Z,98.10
2018-12-02T07:46:55.237Z,98.10
2018-12-02T07:47:58.844Z,98.20
2018-12-02T07:49:02.417Z,98.20
2018-12-02T07:50:07.680Z,98.30
2018-12-02T07:51:11.246Z,98.30
2018-12-02T07:52:14.845Z,98.40
2018-12-02T07:53:18.435Z,98.40
2018-12-02T07:54:22.037Z,98.50
2018-12-02T07:55:25.608Z,98.50
2018-12-02T07:56:29.190Z,98.70
2018-12-02T07:57:32.781Z,98.70
2018-12-02T07:58:36.370Z,98.80
2018-12-02T07:59:39.958Z,98.80
2018-12-02T08:00:44.069Z,98.90
2018-12-02T08:01:47.661Z,99.00
2018-12-02T08:02:51.261Z,99.00
2018-12-02T08:03:54.846Z,99.00
2018-12-02T08:04:58.442Z,99.00
2018-12-02T08:06:02.026Z,99.00
2018-12-02T08:07:06.029Z,99.00
2018-12-02T08:08:09.930Z,99.00
2018-12-02T08:09:13.509Z,99.10
2018-12-02T08:10:17.915Z,99.10
2018-12-02T08:11:21.517Z,99.20
2018-12-02T08:12:25.211Z,99.20
2018-12-02T08:13:28.903Z,99.30
2018-12-02T08:14:32.445Z,99.30
2018-12-02T08:15:36.033Z,99.40
2018-12-02T08:16:39.631Z,99.40
2018-12-02T08:17:43.244Z,99.50
2018-12-02T08:18:46.851Z,99.50
2018-12-02T08:19:50.390Z,99.50
2018-12-02T08:20:53.979Z,99.50
2018-12-02T08:21:57.626Z,99.60
2018-12-02T08:23:01.186Z,99.50
2018-12-02T08:24:05.011Z,99.50
2018-12-02T08:25:13.574Z,99.60
2018-12-02T08:26:17.160Z,99.60
2018-12-02T08:27:20.757Z,99.60
2018-12-02T08:28:24.374Z,99.60
2018-12-02T08:29:27.980Z,99.60
2018-12-02T08:30:31.674Z,99.60
2018-12-02T08:31:35.242Z,99.70
2018-12-02T08:32:38.830Z,99.70
2018-12-02T08:33:42.428Z,99.70
2018-12-02T08:34:46.017Z,99.80
2018-12-02T08:35:49.610Z,99.80
2018-12-02T08:36:53.193Z,99.80
2018-12-02T08:37:59.263Z,99.80
2018-12-02T08:39:02.878Z,99.90
2018-12-02T08:40:10.645Z,99.80
2018-12-02T08:41:14.230Z,99.80
2018-12-02T08:42:17.815Z,99.80
2018-12-02T08:43:21.418Z,99.80
2018-12-02T08:44:25.001Z,99.80
2018-12-02T08:45:28.602Z,99.80
2018-12-02T08:46:32.210Z,99.90
2018-12-02T08:47:35.879Z,99.90
2018-12-02T08:48:39.447Z,99.80
2018-12-02T08:49:43.037Z,99.90
2018-12-02T08:50:46.638Z,99.80
2018-12-02T08:51:50.211Z,99.80
2018-12-02T08:52:53.786Z,99.80
2018-12-02T08:53:57.393Z,99.90
2018-12-02T08:55:00.977Z,99.90
2018-12-02T08:56:04.622Z,99.90
2018-12-02T08:57:08.221Z,99.80
2018-12-02T08:58:11.883Z,99.90
2018-12-02T08:59:15.453Z,99.90
2018-12-02T09:00:20.898Z,99.90
2018-12-02T09:01:24.490Z,99.90
2018-12-02T09:02:28.086Z,99.90
2018-12-02T09:03:31.780Z,99.90
2018-12-02T09:04:35.372Z,99.90
2018-12-02T09:05:38.933Z,99.90
2018-12-02T09:06:42.534Z,99.90
2018-12-02T09:07:46.139Z,99.90
2018-12-02T09:08:49.734Z,99.90
2018-12-02T09:09:59.390Z,99.90
2018-12-02T09:10:56.987Z,99.90
2018-12-02T09:12:00.577Z,99.90
2018-12-02T09:13:05.926Z,99.90
2018-12-02T09:14:09.539Z,99.90
2018-12-02T09:15:13.145Z,99.90
2018-12-02T09:16:16.729Z,99.90
2018-12-02T09:17:20.309Z,99.90
2018-12-02T09:18:23.905Z,99.90
2018-12-02T09:19:27.489Z,99.90
2018-12-02T09:20:33.427Z,99.80
2018-12-02T09:21:37.015Z,99.90
2018-12-02T09:22:40.593Z,99.80
2018-12-02T09:23:47.376Z,99.80
2018-12-02T09:24:47.761Z,99.90
2018-12-02T09:25:52.314Z,99.90
2018-12-02T09:26:54.941Z,99.90
2018-12-02T09:27:58.537Z,99.90
2018-12-02T09:29:02.123Z,99.90
2018-12-02T09:30:13.089Z,99.90
2018-12-02T09:31:16.736Z,99.90
2018-12-02T09:32:20.291Z,99.90
2018-12-02T09:33:23.850Z,99.90
2018-12-02T09:34:27.434Z,99.90
2018-12-02T09:35:31.046Z,99.90
2018-12-02T09:36:34.629Z,99.80
2018-12-02T09:37:38.226Z,99.80
2018-12-02T09:38:41.829Z,99.80
2018-12-02T09:39:45.408Z,99.80
2018-12-02T09:40:49.117Z,99.80
2018-12-02T09:41:52.706Z,99.80
2018-12-02T09:42:56.449Z,99.80
2018-12-02T09:44:00.048Z,99.70
2018-12-02T09:45:03.679Z,99.70
2018-12-02T09:46:07.263Z,99.80
2018-12-02T09:47:10.846Z,99.70
2018-12-02T09:48:14.437Z,99.70
2018-12-02T09:49:18.029Z,99.60
2018-12-02T09:50:21.622Z,99.60
2018-12-02T09:51:25.214Z,99.50
2018-12-02T09:52:28.815Z,99.50
2018-12-02T09:53:32.390Z,99.60
2018-12-02T09:54:35.982Z,99.50
2018-12-02T09:55:42.345Z,99.60
2018-12-02T09:56:45.923Z,99.60
2018-12-02T09:57:49.826Z,99.60
2018-12-02T09:58:53.441Z,99.60
2018-12-02T09:59:57.123Z,99.60
2018-12-02T10:01:00.815Z,99.90
2018-12-02T10:02:04.815Z,99.60
2018-12-02T10:03:08.405Z,99.70
2018-12-02T10:04:11.996Z,99.70
2018-12-02T10:05:15.576Z,99.60
2018-12-02T10:06:19.165Z,99.60
2018-12-02T10:07:22.752Z,99.50
2018-12-02T10:08:26.339Z,99.50
2018-12-02T10:09:29.923Z,99.50
2018-12-02T10:10:33.517Z,99.50
2018-12-02T10:11:37.166Z,99.50
2018-12-02T10:12:41.217Z,99.50
2018-12-02T10:13:44.822Z,99.50
2018-12-02T10:14:48.403Z,99.40
2018-12-02T10:15:52.002Z,99.40
2018-12-02T10:16:55.696Z,99.40
2018-12-02T10:17:59.249Z,99.40
2018-12-02T10:19:02.846Z,99.40
2018-12-02T10:20:09.479Z,99.40
2018-12-02T10:21:13.070Z,99.70
2018-12-02T10:22:16.669Z,99.40
2018-12-02T10:23:20.307Z,99.30
2018-12-02T10:24:23.899Z,99.30
2018-12-02T10:25:27.490Z,99.40
2018-12-02T10:26:31.080Z,99.70
2018-12-02T10:27:34.627Z,99.40
2018-12-02T10:28:38.203Z,99.30
2018-12-02T10:29:41.782Z,99.30
2018-12-02T10:30:45.381Z,99.30
2018-12-02T10:31:48.960Z,99.20
2018-12-02T10:32:53.541Z,99.20
2018-12-02T10:33:57.133Z,99.20
2018-12-02T10:35:00.727Z,99.30
2018-12-02T10:36:04.514Z,99.30
2018-12-02T10:37:08.090Z,99.30
2018-12-02T10:38:11.682Z,99.30
2018-12-02T10:39:15.266Z,99.30
2018-12-02T10:40:19.894Z,99.30
2018-12-02T10:41:23.498Z,99.30
2018-12-02T10:42:27.080Z,99.20
2018-12-02T10:43:30.674Z,99.20
2018-12-02T10:44:34.246Z,99.30
2018-12-02T10:45:37.864Z,99.40
2018-12-02T10:46:43.927Z,99.40
2018-12-02T10:47:45.027Z,99.30
2018-12-02T10:48:48.610Z,99.30
2018-12-02T10:49:52.225Z,99.40
2018-12-02T10:50:55.785Z,99.30
2018-12-02T10:51:59.357Z,99.40
2018-12-02T10:53:06.041Z,99.40
2018-12-02T10:54:09.617Z,99.40
2018-12-02T10:55:21.333Z,99.40
2018-12-02T10:56:24.922Z,99.40
2018-12-02T10:57:28.505Z,99.40
2018-12-02T10:58:33.312Z,99.40
2018-12-02T10:59:36.918Z,99.40
2018-12-02T11:00:46.246Z,99.40
2018-12-02T11:01:54.054Z,99.40
2018-12-02T11:02:57.629Z,99.40
2018-12-02T11:04:01.637Z,99.40
2018-12-02T11:05:05.629Z,99.40
2018-12-02T11:06:09.236Z,99.50
2018-12-02T11:07:12.818Z,99.50
2018-12-02T11:08:16.421Z,99.50
2018-12-02T11:09:20.005Z,99.40
2018-12-02T11:10:23.781Z,99.40
2018-12-02T11:11:27.371Z,99.40
2018-12-02T11:12:30.961Z,99.70
2018-12-02T11:13:34.531Z,99.50
2018-12-02T11:14:38.118Z,99.70
2018-12-02T11:15:41.735Z,99.50
2018-12-02T11:16:45.322Z,99.50
2018-12-02T11:17:48.905Z,99.50
2018-12-02T11:18:52.741Z,99.50
2018-12-02T11:19:56.325Z,99.50
2018-12-02T11:20:59.936Z,99.50
2018-12-02T11:22:03.531Z,99.50
2018-12-02T11:23:07.797Z,99.50
2018-12-02T11:24:11.374Z,99.50
2018-12-02T11:25:15.197Z,99.60
2018-12-02T11:26:18.797Z,99.60
2018-12-02T11:27:22.382Z,99.60
2018-12-02T11:28:26.055Z,99.70
2018-12-02T11:29:29.600Z,99.60
2018-12-02T11:30:33.183Z,99.70
2018-12-02T11:31:36.769Z,99.90
2018-12-02T11:32:40.377Z,99.70
2018-12-02T11:33:43.953Z,99.70
2018-12-02T11:34:47.534Z,99.70
2018-12-02T11:35:51.169Z,99.70
2018-12-02T11:36:54.775Z,99.70
2018-12-02T11:37:58.368Z,99.70
2018-12-02T11:39:02.057Z,99.80
2018-12-02T11:40:08.698Z,99.80
2018-12-02T11:41:12.278Z,99.90
2018-12-02T11:42:15.869Z,99.80
2018-12-02T11:43:19.449Z,99.90
2018-12-02T11:44:23.029Z,99.80
2018-12-02T11:45:26.613Z,99.90
2018-12-02T11:46:30.199Z,99.80
2018-12-02T11:47:33.846Z,99.90
2018-12-02T11:48:37.398Z,99.90
2018-12-02T11:49:40.981Z,99.90
2018-12-02T11:50:44.569Z,99.90
2018-12-02T11:51:48.163Z,99.90
2018-12-02T11:52:51.746Z,99.90
2018-12-02T11:53:55.342Z,99.90
2018-12-02T11:54:58.922Z,99.90
2018-12-02T11:56:02.505Z,99.90
2018-12-02T11:57:06.633Z,99.90
2018-12-02T11:58:10.002Z,99.90
2018-12-02T11:59:13.648Z,99.90
2018-12-02T12:00:26.181Z,99.90
2018-12-02T12:01:29.780Z,99.90
2018-12-02T12:02:33.365Z,99.90
2018-12-02T12:03:36.965Z,99.90
2018-12-02T12:04:40.550Z,99.80
2018-12-02T12:05:44.134Z,99.90
2018-12-02T12:06:47.762Z,99.90
2018-12-02T12:07:51.413Z,99.90
2018-12-02T12:08:55.002Z,99.90
2018-12-02T12:09:58.594Z,99.90
2018-12-02T12:11:02.189Z,99.90
2018-12-02T12:12:05.981Z,99.90
2018-12-02T12:13:09.569Z,99.90
2018-12-02T12:14:13.189Z,99.90
2018-12-02T12:15:17.731Z,99.90
2018-12-02T12:16:21.435Z,99.90
2018-12-02T12:17:24.993Z,99.90
2018-12-02T12:18:28.617Z,99.90
2018-12-02T12:19:32.174Z,99.90
2018-12-02T12:20:43.054Z,99.90
2018-12-02T12:21:46.760Z,99.90
2018-12-02T12:22:50.350Z,99.90
2018-12-02T12:23:53.923Z,99.90
2018-12-02T12:24:57.517Z,99.90
2018-12-02T12:26:01.121Z,99.90
2018-12-02T12:27:04.717Z,99.90
2018-12-02T12:28:08.764Z,99.90
2018-12-02T12:29:12.349Z,99.90
2018-12-02T12:30:17.213Z,99.90
2018-12-02T12:31:20.798Z,99.90
2018-12-02T12:32:24.385Z,99.90
2018-12-02T12:33:27.962Z,99.90
2018-12-02T12:34:31.554Z,99.90
2018-12-02T12:35:35.777Z,99.90
2018-12-02T12:36:39.365Z,99.90
2018-12-02T12:37:42.974Z,99.90
2018-12-02T12:38:46.566Z,99.90
2018-12-02T12:39:50.138Z,99.90
2018-12-02T12:40:53.729Z,99.90
2018-12-02T12:41:57.325Z,99.90
2018-12-02T12:43:33.541Z,99.90
2018-12-02T12:44:37.179Z,99.90
2018-12-02T12:45:40.738Z,99.80
2018-12-02T12:46:44.312Z,99.80
2018-12-02T12:47:47.905Z,99.80
2018-12-02T12:48:51.565Z,99.80
2018-12-02T12:49:55.157Z,99.70
2018-12-02T12:50:58.742Z,99.60
2018-12-02T12:52:02.322Z,99.60
2018-12-02T12:53:05.913Z,99.60
2018-12-02T12:54:09.494Z,99.60
2018-12-02T12:55:15.053Z,99.70
2018-12-02T12:56:18.720Z,99.70
2018-12-02T12:57:22.413Z,99.90
2018-12-02T12:58:26.027Z,99.60
2018-12-02T12:59:29.623Z,99.60
2018-12-02T13:00:33.286Z,99.60
2018-12-02T13:01:36.877Z,99.60
2018-12-02T13:02:40.432Z,99.60
2018-12-02T13:03:44.042Z,99.60
2018-12-02T13:04:47.629Z,99.80
2018-12-02T13:05:51.207Z,99.60
2018-12-02T13:06:54.805Z,99.50
2018-12-02T13:07:58.397Z,99.60
2018-12-02T13:09:01.972Z,99.60
2018-12-02T13:10:08.344Z,99.60
2018-12-02T13:11:11.932Z,99.80
2018-12-02T13:12:15.556Z,99.60
2018-12-02T13:13:19.137Z,99.50
2018-12-02T13:14:22.725Z,99.60
2018-12-02T13:15:26.337Z,99.60
2018-12-02T13:16:36.434Z,99.60
2018-12-02T13:17:40.265Z,99.60
2018-12-02T13:18:43.842Z,99.50
2018-12-02T13:19:47.430Z,99.50
2018-12-02T13:20:53.065Z,99.50
2018-12-02T13:21:56.641Z,99.50
2018-12-02T13:23:00.266Z,99.50
2018-12-02T13:24:03.849Z,99.50
2018-12-02T13:25:09.266Z,99.60
2018-12-02T13:26:12.866Z,99.60
2018-12-02T13:27:16.441Z,99.60
2018-12-02T13:28:20.076Z,99.60
2018-12-02T13:29:23.742Z,99.60
2018-12-02T13:30:27.332Z,99.60
2018-12-02T13:31:30.924Z,99.60
2018-12-02T13:32:34.513Z,99.90
2018-12-02T13:33:38.103Z,99.70
2018-12-02T13:34:41.671Z,99.60
2018-12-02T13:35:45.264Z,99.60
2018-12-02T13:36:48.841Z,99.70
2018-12-02T13:37:52.446Z,99.70
2018-12-02T13:38:56.029Z,99.70
2018-12-02T13:39:59.609Z,99.70
2018-12-02T13:41:03.191Z,99.90
2018-12-02T13:42:06.769Z,99.70
2018-12-02T13:43:13.284Z,99.60
2018-12-02T13:44:16.870Z,99.60